Newburgh Heights, Ohio
Current Conditions -  °F | °C
As of 5:53 AM on Monday 20 Oct 2014 (Local Time) from KBKL Reporting Station
Overcast Overcast  
Wind Chill: 45°   Ceiling: 8000
Heat Index: 49°   Visibility: 10mi
Dew Point: 38°   Wind: 9mph
Humidity: 66%   Direction: 160°SSE
Pressure: 29.95"   Gusts: NA
Location:  41.4719°N, 81.6502°W
Report Text: KBKL 200953Z AUTO 16008KT 10SM BKN080 OVC100 09/03 A2995 RMK AO2 SLP143 T00940033
Loading
Personal Weather Stations






























Interactive Weather Map
Tropical Storm Tracking
New forecast layout! Learn more

10-Day Weather Forecast

Advertisements
Track Severe Weather on mobile